createdAt,value
2019-01-10T00:02:17.894Z,8.60
2019-01-10T00:04:49.827Z,8.38
2019-01-10T00:07:25.844Z,7.37
2019-01-10T00:09:57.836Z,6.53
2019-01-10T00:12:39.207Z,8.25
2019-01-10T00:15:11.441Z,8.73
2019-01-10T00:17:43.483Z,8.70
2019-01-10T00:20:16.818Z,7.40
2019-01-10T00:22:48.810Z,8.55
2019-01-10T00:25:20.747Z,7.70
2019-01-10T00:27:55.028Z,10.13
2019-01-10T00:30:27.021Z,8.33
2019-01-10T00:32:58.975Z,7.45
2019-01-10T00:35:30.900Z,7.15
2019-01-10T00:38:02.883Z,7.47
2019-01-10T00:40:34.809Z,8.08
2019-01-10T00:43:06.804Z,6.72
2019-01-10T00:45:38.746Z,8.45
2019-01-10T00:48:10.723Z,9.38
2019-01-10T00:50:42.674Z,7.50
2019-01-10T00:53:17.139Z,10.48
2019-01-10T00:55:52.245Z,6.33
2019-01-10T00:58:24.213Z,7.67
2019-01-10T01:00:58.246Z,7.95
2019-01-10T01:03:30.297Z,9.58
2019-01-10T01:06:05.308Z,6.80
2019-01-10T01:08:37.265Z,8.78
2019-01-10T01:11:09.224Z,9.88
2019-01-10T01:13:41.140Z,8.48
2019-01-10T01:16:13.092Z,8.03
2019-01-10T01:18:45.014Z,9.55
2019-01-10T01:21:17.143Z,7.40
2019-01-10T01:23:49.082Z,10.72
2019-01-10T01:26:21.053Z,8.50
2019-01-10T01:28:52.987Z,10.53
2019-01-10T01:31:24.927Z,9.40
2019-01-10T01:33:56.928Z,13.05
2019-01-10T01:36:28.887Z,8.70
2019-01-10T01:39:01.908Z,11.38
2019-01-10T01:41:35.336Z,12.50
2019-01-10T01:44:07.262Z,8.78
2019-01-10T01:46:40.369Z,9.50
2019-01-10T01:49:12.251Z,9.10
2019-01-10T01:51:45.854Z,9.53
2019-01-10T01:54:22.181Z,9.65
2019-01-10T01:56:54.192Z,9.43
2019-01-10T01:59:26.112Z,8.98
2019-01-10T02:01:58.150Z,8.65
2019-01-10T02:04:30.080Z,10.50
2019-01-10T02:07:03.371Z,10.63
2019-01-10T02:09:35.278Z,9.63
2019-01-10T02:12:10.472Z,10.63
2019-01-10T02:14:42.399Z,8.28
2019-01-10T02:17:14.359Z,9.63
2019-01-10T02:19:46.299Z,8.05
2019-01-10T02:22:18.368Z,10.00
2019-01-10T02:24:51.955Z,11.20
2019-01-10T02:27:23.915Z,10.90
2019-01-10T02:29:55.858Z,9.45
2019-01-10T02:32:27.788Z,9.60
2019-01-10T02:34:59.733Z,11.83
2019-01-10T02:37:31.689Z,8.63
2019-01-10T02:40:05.088Z,9.98
2019-01-10T02:42:37.055Z,9.05
2019-01-10T02:45:10.202Z,8.13
2019-01-10T02:47:42.152Z,8.50
2019-01-10T02:50:18.377Z,7.45
2019-01-10T02:52:50.767Z,9.53
2019-01-10T02:55:22.684Z,8.25
2019-01-10T02:57:54.623Z,7.55
2019-01-10T03:00:27.273Z,9.53
2019-01-10T03:02:59.230Z,7.85
2019-01-10T03:05:31.144Z,9.48
2019-01-10T03:08:03.072Z,10.20
2019-01-10T03:10:35.022Z,8.53
2019-01-10T03:13:06.943Z,8.20
2019-01-10T03:15:38.886Z,7.58
2019-01-10T03:18:10.833Z,12.15
2019-01-10T03:20:45.307Z,8.68
2019-01-10T03:23:17.227Z,10.00
2019-01-10T03:25:49.159Z,8.88
2019-01-10T03:28:21.099Z,10.13
2019-01-10T03:30:53.097Z,10.13
2019-01-10T03:33:25.025Z,11.80
2019-01-10T03:35:56.993Z,11.50
2019-01-10T03:38:28.960Z,10.25
2019-01-10T03:41:00.940Z,9.25
2019-01-10T03:43:32.986Z,12.82
2019-01-10T03:46:05.300Z,10.85
2019-01-10T03:48:39.992Z,10.85
2019-01-10T03:51:12.020Z,10.72
2019-01-10T03:53:43.928Z,9.75
2019-01-10T03:56:15.994Z,14.78
2019-01-10T03:58:47.900Z,9.75
2019-01-10T04:01:19.864Z,9.83
2019-01-10T04:03:52.267Z,10.90
2019-01-10T04:06:24.220Z,10.03
2019-01-10T04:08:56.155Z,11.63
2019-01-10T04:11:28.103Z,12.23
2019-01-10T04:14:00.043Z,9.75
2019-01-10T04:16:32.001Z,9.20
2019-01-10T04:19:03.953Z,11.03
2019-01-10T04:21:35.859Z,11.73
2019-01-10T04:24:07.796Z,10.75
2019-01-10T04:26:40.711Z,10.25
2019-01-10T04:29:12.699Z,10.18
2019-01-10T04:31:45.027Z,11.30
2019-01-10T04:34:19.042Z,12.95
2019-01-10T04:36:53.273Z,9.50
2019-01-10T04:39:25.250Z,15.38
2019-01-10T04:42:00.160Z,15.85
2019-01-10T04:44:33.860Z,10.72
2019-01-10T04:47:09.823Z,13.62
2019-01-10T04:49:44.669Z,12.35
2019-01-10T04:52:19.147Z,12.10
2019-01-10T04:54:51.130Z,12.60
2019-01-10T04:57:27.814Z,13.30
2019-01-10T05:00:00.169Z,14.45
2019-01-10T05:02:32.129Z,12.23
2019-01-10T05:05:04.158Z,14.53
2019-01-10T05:07:37.891Z,12.65
2019-01-10T05:10:10.865Z,11.28
2019-01-10T05:12:42.798Z,12.10
2019-01-10T05:15:15.165Z,14.05
2019-01-10T05:17:47.101Z,11.75
2019-01-10T05:20:22.945Z,13.03
2019-01-10T05:22:54.851Z,12.40
2019-01-10T05:25:26.799Z,11.55
2019-01-10T05:27:58.798Z,11.33
2019-01-10T05:30:31.748Z,12.15
2019-01-10T05:33:04.784Z,12.35
2019-01-10T05:35:36.760Z,11.25
2019-01-10T05:38:08.674Z,11.83
2019-01-10T05:40:40.621Z,15.58
2019-01-10T05:43:14.192Z,14.58
2019-01-10T05:45:46.126Z,12.30
2019-01-10T05:48:18.124Z,11.90
2019-01-10T05:50:49.751Z,12.70
2019-01-10T05:53:21.678Z,11.45
2019-01-10T05:55:54.759Z,14.18
2019-01-10T05:58:26.698Z,19.25
2019-01-10T06:00:58.617Z,11.60
2019-01-10T06:03:30.654Z,12.20
2019-01-10T06:06:02.654Z,10.18
2019-01-10T06:08:34.608Z,11.08
2019-01-10T06:11:06.505Z,13.68
2019-01-10T06:13:38.445Z,11.10
2019-01-10T06:16:13.679Z,11.40
2019-01-10T06:18:45.715Z,10.82
2019-01-10T06:21:17.619Z,11.53
2019-01-10T06:23:49.591Z,10.70
2019-01-10T06:26:22.576Z,9.13
2019-01-10T06:28:54.511Z,9.08
2019-01-10T06:31:26.416Z,9.45
2019-01-10T06:33:58.319Z,9.15
2019-01-10T06:36:30.269Z,12.88
2019-01-10T06:39:02.155Z,9.85
2019-01-10T06:41:34.128Z,9.75
2019-01-10T06:44:06.142Z,15.28
2019-01-10T06:46:39.067Z,10.10
2019-01-10T06:49:13.832Z,7.75
2019-01-10T06:51:47.008Z,8.98
2019-01-10T06:54:18.897Z,10.03
2019-01-10T06:56:50.855Z,11.63
2019-01-10T06:59:27.694Z,6.80
2019-01-10T07:01:59.608Z,7.72
2019-01-10T07:04:31.569Z,10.25
2019-01-10T07:07:06.244Z,8.80
2019-01-10T07:09:38.140Z,14.13
2019-01-10T07:12:10.077Z,10.08
2019-01-10T07:14:42.385Z,10.63
2019-01-10T07:17:15.944Z,10.03
2019-01-10T07:19:49.265Z,11.73
2019-01-10T07:22:27.485Z,10.88
2019-01-10T07:25:01.055Z,12.55
2019-01-10T07:27:34.498Z,10.60
2019-01-10T07:30:09.220Z,10.70
2019-01-10T07:32:42.098Z,11.28
2019-01-10T07:35:16.763Z,13.98
2019-01-10T07:37:57.277Z,10.10
2019-01-10T07:40:29.600Z,12.40
2019-01-10T07:43:01.505Z,11.48
2019-01-10T07:45:33.436Z,12.05
2019-01-10T07:48:08.995Z,12.13
2019-01-10T07:50:40.924Z,13.78
2019-01-10T07:53:12.864Z,15.10
2019-01-10T07:55:44.804Z,15.40
2019-01-10T07:58:16.699Z,12.88
2019-01-10T08:00:48.648Z,16.42
2019-01-10T08:03:21.653Z,13.90
2019-01-10T08:05:58.393Z,15.18
2019-01-10T08:08:33.631Z,20.60
2019-01-10T08:11:05.713Z,12.55
2019-01-10T08:13:40.714Z,11.25
2019-01-10T08:16:14.971Z,15.32
2019-01-10T08:18:46.897Z,17.73
2019-01-10T08:21:18.815Z,13.08
2019-01-10T08:23:56.178Z,12.13
2019-01-10T08:26:24.386Z,11.25
2019-01-10T08:29:02.240Z,11.78
2019-01-10T08:31:35.786Z,10.28
2019-01-10T08:34:08.937Z,14.20
2019-01-10T08:36:40.854Z,11.30
2019-01-10T08:39:13.109Z,11.08
2019-01-10T08:41:45.042Z,10.58
2019-01-10T08:44:17.020Z,14.07
2019-01-10T08:46:48.955Z,12.75
2019-01-10T08:49:20.866Z,11.60
2019-01-10T08:51:52.821Z,9.50
2019-01-10T08:54:24.717Z,10.93
2019-01-10T08:56:56.726Z,9.38
2019-01-10T08:59:31.648Z,9.18
2019-01-10T09:02:03.633Z,11.18
2019-01-10T09:04:36.722Z,9.75
2019-01-10T09:07:08.681Z,8.98
2019-01-10T09:09:40.626Z,9.20
2019-01-10T09:12:12.599Z,7.95
2019-01-10T09:14:52.999Z,9.50
2019-01-10T09:17:24.951Z,9.53
2019-01-10T09:19:56.864Z,9.93
2019-01-10T09:22:28.832Z,14.83
2019-01-10T09:25:00.757Z,12.13
2019-01-10T09:27:32.711Z,11.80
2019-01-10T09:30:05.453Z,11.57
2019-01-10T09:32:37.428Z,11.40
2019-01-10T09:35:11.535Z,12.85
2019-01-10T09:37:43.507Z,14.45
2019-01-10T09:40:18.061Z,11.48
2019-01-10T09:42:49.999Z,12.68
2019-01-10T09:45:25.378Z,10.70
2019-01-10T09:47:58.974Z,12.07
2019-01-10T09:50:30.904Z,13.68
2019-01-10T09:53:02.844Z,13.43
2019-01-10T09:55:34.830Z,15.28
2019-01-10T09:58:06.811Z,19.87
2019-01-10T10:00:38.715Z,25.45
2019-01-10T10:03:10.654Z,15.68
2019-01-10T10:05:42.592Z,15.45
2019-01-10T10:08:17.597Z,15.03
2019-01-10T10:10:49.521Z,9.65
2019-01-10T10:13:21.477Z,10.30
2019-01-10T10:15:56.134Z,9.80
2019-01-10T10:18:28.046Z,11.30
2019-01-10T10:20:59.992Z,10.65
2019-01-10T10:23:33.020Z,15.00
2019-01-10T10:26:05.041Z,15.58
2019-01-10T10:28:38.582Z,13.13
2019-01-10T10:31:10.513Z,11.73
2019-01-10T10:33:42.461Z,13.13
2019-01-10T10:36:16.004Z,13.50
2019-01-10T10:38:51.008Z,12.88
2019-01-10T10:41:24.520Z,12.73
2019-01-10T10:43:56.465Z,13.08
2019-01-10T10:46:31.659Z,15.58
2019-01-10T10:49:03.618Z,13.20
2019-01-10T10:51:37.048Z,10.18
2019-01-10T10:54:12.176Z,15.30
2019-01-10T10:56:42.664Z,13.00
2019-01-10T10:59:14.597Z,12.30
2019-01-10T11:01:47.563Z,11.78
2019-01-10T11:04:24.571Z,10.93
2019-01-10T11:06:59.568Z,15.00
2019-01-10T11:09:30.113Z,7.40
2019-01-10T11:12:02.033Z,10.43
2019-01-10T11:14:35.418Z,11.60
2019-01-10T11:17:09.051Z,11.22
2019-01-10T11:19:41.318Z,11.65
2019-01-10T11:22:13.293Z,23.67
2019-01-10T11:24:45.377Z,16.57
2019-01-10T11:27:17.472Z,15.10
2019-01-10T11:29:49.459Z,18.45
2019-01-10T11:32:21.430Z,16.10
2019-01-10T11:34:53.376Z,12.28
2019-01-10T11:37:25.336Z,17.20
2019-01-10T11:39:57.365Z,14.68
2019-01-10T11:42:32.063Z,8.93
2019-01-10T11:45:10.035Z,10.03
2019-01-10T11:47:41.987Z,13.38
2019-01-10T11:50:15.725Z,10.70
2019-01-10T11:52:51.707Z,12.93
2019-01-10T11:55:23.653Z,11.97
2019-01-10T11:57:59.407Z,7.65
2019-01-10T12:00:33.997Z,8.80
2019-01-10T12:03:08.104Z,7.45
2019-01-10T12:05:47.849Z,10.90
2019-01-10T12:08:18.367Z,8.25
2019-01-10T12:10:50.314Z,7.90
2019-01-10T12:13:22.237Z,10.48
2019-01-10T12:15:54.215Z,7.95
2019-01-10T12:18:26.102Z,6.12
2019-01-10T12:20:58.065Z,5.53
2019-01-10T12:23:29.948Z,7.83
2019-01-10T12:26:01.983Z,7.03
2019-01-10T12:28:33.899Z,5.45
2019-01-10T12:31:05.834Z,9.28
2019-01-10T12:33:39.071Z,4.95
2019-01-10T12:36:11.072Z,5.95
2019-01-10T12:38:43.021Z,5.05
2019-01-10T12:41:15.013Z,5.10
2019-01-10T12:43:46.937Z,4.47
2019-01-10T12:46:18.885Z,5.30
2019-01-10T12:48:54.089Z,4.65
2019-01-10T12:51:26.022Z,8.73
2019-01-10T12:53:57.938Z,5.28
2019-01-10T12:56:32.462Z,5.40
2019-01-10T12:59:04.361Z,4.22
2019-01-10T13:01:38.706Z,6.97
2019-01-10T13:04:10.609Z,7.17
2019-01-10T13:06:42.550Z,5.35
2019-01-10T13:09:14.479Z,5.55
2019-01-10T13:11:46.563Z,4.72
2019-01-10T13:14:19.574Z,6.72
2019-01-10T13:16:51.551Z,6.87
2019-01-10T13:19:23.448Z,8.60
2019-01-10T13:21:55.460Z,6.62
2019-01-10T13:24:27.397Z,7.42
2019-01-10T13:26:59.355Z,6.10
2019-01-10T13:29:34.357Z,7.50
2019-01-10T13:32:06.309Z,6.90
2019-01-10T13:34:38.487Z,6.58
2019-01-10T13:37:10.554Z,7.80
2019-01-10T13:39:43.914Z,6.00
2019-01-10T13:42:19.119Z,5.67
2019-01-10T13:44:51.111Z,4.67
2019-01-10T13:47:23.057Z,5.20
2019-01-10T13:49:55.104Z,6.60
2019-01-10T13:52:27.114Z,6.40
2019-01-10T13:54:59.088Z,4.20
2019-01-10T13:57:33.988Z,4.78
2019-01-10T14:00:10.396Z,4.72
2019-01-10T14:02:44.208Z,7.30
2019-01-10T14:05:16.197Z,10.80
2019-01-10T14:07:48.131Z,10.08
2019-01-10T14:10:20.450Z,10.65
2019-01-10T14:12:55.361Z,8.50
2019-01-10T14:15:30.827Z,4.85
2019-01-10T14:18:04.603Z,4.35
2019-01-10T14:20:36.658Z,3.85
2019-01-10T14:23:14.241Z,4.17
2019-01-10T14:25:46.270Z,4.53
2019-01-10T14:28:18.209Z,3.55
2019-01-10T14:30:50.185Z,4.30
2019-01-10T14:33:22.109Z,4.05
2019-01-10T14:35:54.282Z,3.72
2019-01-10T14:38:27.540Z,5.05
2019-01-10T14:41:05.670Z,3.55
2019-01-10T14:43:37.585Z,7.37
2019-01-10T14:46:09.719Z,6.08
2019-01-10T14:48:43.518Z,7.00
2019-01-10T14:51:15.535Z,4.40
2019-01-10T14:53:47.434Z,5.22
2019-01-10T14:56:19.379Z,29.60
2019-01-10T14:58:53.822Z,27.82
2019-01-10T15:01:25.795Z,8.25
2019-01-10T15:04:02.522Z,7.58
2019-01-10T15:06:37.295Z,6.47
2019-01-10T15:09:10.982Z,6.50
2019-01-10T15:11:42.906Z,6.67
2019-01-10T15:14:17.589Z,3.90
2019-01-10T15:16:49.535Z,4.15
2019-01-10T15:19:21.478Z,4.67
2019-01-10T15:21:53.432Z,3.92
2019-01-10T15:24:27.013Z,7.72
2019-01-10T15:26:58.919Z,6.78
2019-01-10T15:29:30.858Z,7.15
2019-01-10T15:32:02.826Z,10.28
2019-01-10T15:34:34.751Z,7.00
2019-01-10T15:37:06.981Z,5.20
2019-01-10T15:39:46.633Z,12.65
2019-01-10T15:42:18.541Z,7.12
2019-01-10T15:44:50.588Z,5.17
2019-01-10T15:47:26.732Z,3.95
2019-01-10T15:50:00.943Z,9.63
2019-01-10T15:52:32.896Z,5.30
2019-01-10T15:55:05.110Z,6.50
2019-01-10T15:57:37.201Z,4.72
2019-01-10T16:00:14.076Z,4.58
2019-01-10T16:03:04.444Z,4.65
2019-01-10T16:05:36.800Z,3.45
2019-01-10T16:08:09.818Z,7.17
2019-01-10T16:10:46.855Z,9.70
2019-01-10T16:13:20.825Z,5.95
2019-01-10T16:15:55.580Z,6.45
2019-01-10T16:18:27.516Z,9.05
2019-01-10T16:21:04.528Z,7.47
2019-01-10T16:23:41.357Z,6.22
2019-01-10T16:26:13.296Z,5.70
2019-01-10T16:28:46.958Z,4.60
2019-01-10T16:31:28.212Z,4.15
2019-01-10T16:34:00.227Z,5.12
2019-01-10T16:36:34.333Z,5.10
2019-01-10T16:39:09.351Z,5.72
2019-01-10T16:41:41.384Z,6.47
2019-01-10T16:44:13.312Z,14.50
2019-01-10T16:46:47.811Z,9.43
2019-01-10T16:49:21.047Z,5.85
2019-01-10T16:51:56.416Z,5.50
2019-01-10T16:54:29.603Z,4.78
2019-01-10T16:57:03.929Z,4.30
2019-01-10T16:59:37.125Z,4.67
2019-01-10T17:02:09.100Z,3.92
2019-01-10T17:04:42.708Z,5.22
2019-01-10T17:07:16.111Z,4.72
2019-01-10T17:09:51.921Z,5.60
2019-01-10T17:12:23.871Z,4.85
2019-01-10T17:14:55.846Z,3.50
2019-01-10T17:17:37.539Z,5.37
2019-01-10T17:20:10.517Z,6.45
2019-01-10T17:22:42.540Z,8.53
2019-01-10T17:25:14.796Z,6.47
2019-01-10T17:27:48.401Z,8.00
2019-01-10T17:30:33.693Z,30.82
2019-01-10T17:33:06.789Z,34.10
2019-01-10T17:35:40.075Z,15.50
2019-01-10T17:38:12.146Z,24.15
2019-01-10T17:40:44.107Z,8.63
2019-01-10T17:43:16.241Z,3.42
2019-01-10T17:45:48.322Z,3.50
2019-01-10T17:48:22.582Z,3.87
2019-01-10T17:50:56.231Z,4.83
2019-01-10T17:53:28.259Z,3.72
2019-01-10T17:56:01.555Z,5.20
2019-01-10T17:58:35.107Z,5.25
2019-01-10T18:01:07.106Z,5.83
2019-01-10T18:03:40.298Z,4.62
2019-01-10T18:06:14.194Z,6.15
2019-01-10T18:08:46.162Z,8.63
2019-01-10T18:11:19.532Z,4.53
2019-01-10T18:13:54.590Z,9.90
2019-01-10T18:16:26.617Z,6.85
2019-01-10T18:19:00.870Z,7.22
2019-01-10T18:21:32.916Z,6.95
2019-01-10T18:24:04.895Z,6.00
2019-01-10T18:26:38.697Z,4.90
2019-01-10T18:29:10.676Z,6.22
2019-01-10T18:31:46.171Z,7.30
2019-01-10T18:34:21.174Z,7.90
2019-01-10T18:36:51.848Z,7.40
2019-01-10T18:39:23.845Z,7.58
2019-01-10T18:41:55.796Z,5.42
2019-01-10T18:44:30.881Z,7.67
2019-01-10T18:47:02.877Z,8.08
2019-01-10T18:49:36.154Z,11.33
2019-01-10T18:52:10.038Z,7.03
2019-01-10T18:54:43.743Z,5.17
2019-01-10T18:57:15.761Z,7.20
2019-01-10T18:59:47.775Z,6.87
2019-01-10T19:02:19.819Z,11.70
2019-01-10T19:04:51.829Z,8.90
2019-01-10T19:07:30.166Z,6.05
2019-01-10T19:10:11.749Z,5.22
2019-01-10T19:12:45.496Z,6.25
2019-01-10T19:15:21.299Z,5.33
2019-01-10T19:17:53.401Z,5.80
2019-01-10T19:20:29.251Z,5.10
2019-01-10T19:23:06.864Z,4.97
2019-01-10T19:25:39.994Z,4.62
2019-01-10T19:28:12.019Z,8.60
2019-01-10T19:30:44.061Z,6.75
2019-01-10T19:33:21.903Z,9.03
2019-01-10T19:35:55.908Z,7.45
2019-01-10T19:38:27.918Z,7.40
2019-01-10T19:41:00.222Z,8.00
2019-01-10T19:43:32.252Z,13.98
2019-01-10T19:46:07.263Z,9.88
2019-01-10T19:48:40.543Z,10.18
2019-01-10T19:51:12.513Z,8.58
2019-01-10T19:53:44.562Z,9.33
2019-01-10T19:56:17.622Z,9.90
2019-01-10T19:58:51.548Z,9.05
2019-01-10T20:01:27.294Z,14.05
2019-01-10T20:04:09.197Z,7.87
2019-01-10T20:06:42.531Z,8.13
2019-01-10T20:09:16.093Z,7.75
2019-01-10T20:11:50.670Z,7.80
2019-01-10T20:14:22.591Z,8.68
2019-01-10T20:16:55.794Z,16.23
2019-01-10T20:19:30.532Z,10.88
2019-01-10T20:22:02.480Z,9.23
2019-01-10T20:24:37.231Z,9.53
2019-01-10T20:27:10.877Z,10.43
2019-01-10T20:29:42.839Z,7.60
2019-01-10T20:32:14.971Z,7.35
2019-01-10T20:34:47.009Z,7.55
2019-01-10T20:37:20.632Z,6.25
2019-01-10T20:39:52.565Z,7.50
2019-01-10T20:42:24.620Z,4.50
2019-01-10T20:44:56.512Z,5.90
2019-01-10T20:47:28.507Z,5.72
2019-01-10T20:50:00.473Z,7.65
2019-01-10T20:52:34.097Z,6.30
2019-01-10T20:55:07.938Z,14.33
2019-01-10T20:57:42.720Z,8.83
2019-01-10T21:00:18.315Z,8.55
2019-01-10T21:02:50.867Z,9.08
2019-01-10T21:05:22.878Z,8.65
2019-01-10T21:07:56.424Z,6.90
2019-01-10T21:10:28.498Z,6.08
2019-01-10T21:13:00.695Z,5.55
2019-01-10T21:15:35.627Z,7.37
2019-01-10T21:18:08.931Z,8.50
2019-01-10T21:20:42.273Z,7.00
2019-01-10T21:23:14.421Z,7.25
2019-01-10T21:25:46.304Z,6.05
2019-01-10T21:28:22.635Z,6.03
2019-01-10T21:30:53.422Z,5.50
2019-01-10T21:33:27.041Z,10.00
2019-01-10T21:35:59.282Z,9.95
2019-01-10T21:38:31.284Z,9.53
2019-01-10T21:41:04.686Z,8.55
2019-01-10T21:43:38.992Z,9.08
2019-01-10T21:46:10.944Z,9.98
2019-01-10T21:48:45.640Z,9.08
2019-01-10T21:51:17.794Z,9.40
2019-01-10T21:53:50.788Z,6.78
2019-01-10T21:56:25.285Z,9.05
2019-01-10T21:58:57.219Z,7.50
2019-01-10T22:01:33.625Z,7.17
2019-01-10T22:04:06.269Z,9.48
2019-01-10T22:06:41.205Z,9.53
2019-01-10T22:09:13.153Z,11.60
2019-01-10T22:11:45.077Z,8.95
2019-01-10T22:14:17.015Z,8.70
2019-01-10T22:16:48.999Z,11.00
2019-01-10T22:19:20.984Z,8.55
2019-01-10T22:21:52.920Z,11.03
2019-01-10T22:24:24.872Z,9.90
2019-01-10T22:26:56.794Z,10.05
2019-01-10T22:29:28.755Z,7.28
2019-01-10T22:32:00.665Z,8.30
2019-01-10T22:34:32.597Z,7.25
2019-01-10T22:37:04.517Z,8.05
2019-01-10T22:39:36.474Z,6.05
2019-01-10T22:42:08.415Z,6.70
2019-01-10T22:44:40.374Z,7.42
2019-01-10T22:47:12.330Z,11.12
2019-01-10T22:49:46.057Z,8.63
2019-01-10T22:52:17.980Z,7.72
2019-01-10T22:54:53.079Z,9.28
2019-01-10T22:57:25.006Z,7.33
2019-01-10T22:59:59.999Z,6.97
2019-01-10T23:02:33.023Z,6.30
2019-01-10T23:05:09.181Z,8.18
2019-01-10T23:07:41.100Z,9.90
2019-01-10T23:10:13.334Z,7.75
2019-01-10T23:12:48.514Z,9.33
2019-01-10T23:15:38.972Z,7.70
2019-01-10T23:18:15.317Z,8.68
2019-01-10T23:20:59.737Z,9.80
2019-01-10T23:23:31.666Z,15.13
2019-01-10T23:26:03.682Z,12.70
2019-01-10T23:28:41.055Z,12.43
2019-01-10T23:31:18.211Z,10.55
2019-01-10T23:33:51.753Z,11.10
2019-01-10T23:36:27.936Z,9.08
2019-01-10T23:39:20.628Z,8.70
2019-01-10T23:41:54.437Z,10.55
2019-01-10T23:44:26.506Z,9.40
2019-01-10T23:47:01.423Z,7.45
2019-01-10T23:49:35.664Z,9.08
2019-01-10T23:52:07.568Z,9.45
2019-01-10T23:54:39.487Z,7.78
2019-01-10T23:57:11.419Z,8.05
2019-01-10T23:59:43.330Z,8.13
